Adjuster:

Seasonal Box Office


INDEX BY QUARTER | INDEX BY YEAR | SEASON-TO-DATE

2014 - 2013 - 2012 - 2011 - 2010 - 2009 - 2008 - 2007 - 2006 - 2005 - 2004 - 2003 - 2002 - 2001 - 2000

Season-to-Date: Summer
(The first Friday in May through Labor Day Weekend)
Data shown for May 6–Jul. 8


#1–100 - #101–200 - #201–255
RowRankMovie Title (click to view)Studio
Gross / TheatersTotal Gross / % of TotalOpen
120Fantastic FourFox$21,263,9923,602$154,696,08013.7%7/8/05
236Dark WaterBV$3,873,2732,657$25,473,35215.2%7/8/05
3178MurderballThink$17,7618$1,531,1541.2%7/8/05
4189CronicasPalm$13,4139$300,3224.5%7/8/05
5201SarabandSPC$10,6364$645,6341.6%7/8/05
6211The Beautiful CountrySPC$8,0306$442,8131.8%7/8/05
7254Steve + SkyLife$1931$62430.9%7/8/05
827ReboundFox$9,528,0632,464$16,809,01456.7%7/1/05
9102The Beat That My Heart SkippedWells$137,50218$1,023,42413.4%7/1/05
10177UndeadLions$18,88713$41,19645.8%7/1/05
11203The WorldZeit.$10,4931$64,12316.4%7/1/05
12224Twist of FaithAL$4,2122$8,12951.8%7/1/05
136War of the WorldsPar.$144,222,8913,910$234,280,35461.6%6/29/05
14220A Decent FactoryIcar.$5,0121$7,92563.2%6/29/05
1511BewitchedSony$47,247,5473,188$63,313,15974.6%6/24/05
1621George A. Romero's Land of the DeadUni.$18,472,2152,253$20,700,08289.2%6/24/05
1741RizeLions$2,915,869352$3,336,39187.4%6/24/05
1851PaheliEros$1,202,13568$1,409,49985.3%6/24/05
1953March of the PenguinsWIP$1,179,03964$77,437,2231.5%6/24/05
20111YesSPC$113,31617$396,76028.6%6/24/05
21132Lila SaysIDP$56,9086$121,36546.9%6/24/05
22161Elevator to the Gallows (Re-issue)Rialto$27,8281$263,40410.6%6/24/05
23184The Last MogulThink$14,9772$16,46990.9%6/24/05
24196Tropical MaladyStrand$11,7961$46,75025.2%6/24/05
25209Drivers WantedPill.$8,7741$25,18934.8%6/24/05
26222Tony TakitaniStrand$4,3471$129,7833.3%6/24/05
2713Herbie: Fully LoadedBV$44,409,1433,521$66,023,81667.3%6/22/05
2822The Perfect ManUni.$14,359,3202,090$16,535,00586.8%6/17/05
2966My Summer of LoveFocus$680,73563$1,000,91568.0%6/17/05
3067Me and You and Everyone We KnowIFC$656,00057$3,885,13416.9%6/17/05
3174HeightsSPC$485,57462$1,160,81741.8%6/17/05
32135The Talent Given UsVita.$55,7243$65,82784.7%6/17/05
33173Edvard Munch (Re-issue)Shad.$20,1372$43,53946.3%6/17/05
34191The Great WaterPict.$13,3452$17,25777.3%6/17/05
353Batman BeginsWB$164,944,1693,858$205,343,77480.3%6/15/05
364Mr. & Mrs. SmithFox$153,276,8683,451$186,336,27982.3%6/10/05
3715The Adventures of Sharkboy and Lavagirl in 3DDim.$36,154,0002,655$39,177,68492.3%6/10/05
3823The HoneymoonersPar.$12,407,0871,912$12,843,84996.6%6/10/05
3937High TensionLions$3,681,0661,323$3,681,066100.0%6/10/05
4038Howl's Moving CastleBV$3,601,044202$4,711,09676.4%6/10/05
4164ParineetaUTV$716,62750$802,75889.3%6/10/05
421165x2Think$86,5885$128,75267.3%6/10/05
43138The Keeper: The Legend of Omar KhayyamArv.$52,7813$225,86323.4%6/10/05
44143The Bridge of San Luis ReyFL$49,9816$49,981100.0%6/10/05
45166PureIndic.$24,0713$102,47123.5%6/10/05
46192Wild SideWells$12,5952$15,35582.0%6/10/05
47205Slutty SummerEmbr.$10,0961$21,51546.9%6/10/05
48223McLibelLibre$4,3373$4,337100.0%6/10/05
498Cinderella ManUni.$55,799,3202,820$61,649,91190.5%6/3/05
5025Lords of DogtownSony$11,034,9031,865$11,273,51797.9%6/3/05
5175Apres VousParC$459,73942$830,29255.4%6/3/05
52106Caterina in the Big CityEmp.$129,8958$296,46443.8%6/3/05
53122Deep BlueMira.$65,1715$132,26149.3%6/3/05
54124Rock SchoolPicH$64,31032$64,310100.0%6/3/05
55195Milwaukee, MinnesotaTar.$12,0223$17,52868.6%6/3/05
5614The Sisterhood of the Traveling PantsWB$36,472,0912,583$39,053,06193.4%6/1/05
57175Or (My Treasure)Kino$19,0772$29,19465.3%6/1/05
582MadagascarDW$176,637,2244,142$193,595,52191.2%5/27/05
595The Longest YardPar.$150,944,4213,654$158,119,46095.5%5/27/05
6056Bunty Aur BabliYash$942,75651$942,756100.0%5/27/05
6158Saving FaceSPC$862,32756$1,187,26672.6%5/27/05
62147The Ninth DayKino$44,6864$72,88861.3%5/27/05
63172The Two of UsRialto$20,5891$56,55836.4%5/27/05
64180SequinsNYer$15,5312$26,04259.6%5/27/05
65181Bomb the SystemPalm$15,5202$15,520100.0%5/27/05
66185GenesisThink$14,6201$16,41389.1%5/27/05
67197A League of Ordinary GentlemenMagn.$11,7274$18,80762.4%5/27/05
68246Spooky House (Re-issue)Ent.H$6374$637100.0%5/27/05
6988Dominion: Prequel to the ExorcistWB$251,495110$251,495100.0%5/20/05
70165Sex, Politics & CocktailsReg.$26,0872$26,087100.0%5/20/05
71232Stolen ChildhoodsBal.$2,9961$2,996100.0%5/20/05
721Star Wars: Episode III - Revenge of the SithFox$368,984,4753,663$380,270,57797.0%5/19/05
737Monster-in-LawNL$80,777,4723,424$82,931,30197.4%5/13/05
749Kicking and ScreamingUni.$51,647,8053,470$52,842,72497.7%5/13/05
7519UnleashedRog.$24,505,3911,962$24,537,62199.9%5/13/05
7631MindhuntersDim.$4,472,5191,040$4,480,74499.8%5/13/05
7732Mad Hot BallroomParC$4,324,991202$8,117,96153.3%5/13/05
7845Layer CakeSPC$2,170,010200$2,339,95792.7%5/13/05
7993Kings and QueenWells$213,6069$290,97373.4%5/13/05
80100ModiglianiBMD$170,3169$205,16583.0%5/13/05
81121Shake Hands with the Devil: The Journey of Romeo DallaireCalN$65,8794$68,24996.5%5/13/05
82139Ma MereTLA$51,9384$71,61672.5%5/13/05
83153Tell Them Who You AreThink$33,8154$39,07586.5%5/13/05
8410CrashLions$50,177,8571,905$54,580,30091.9%5/6/05
8512Kingdom of HeavenFox$47,146,0943,219$47,398,41399.5%5/6/05
8616House of WaxWB$31,869,4913,111$32,064,80099.4%5/6/05
8770Mysterious SkinTar.$543,23619$713,24076.2%5/6/05
8880Brothers (2005)IFC$338,29526$389,22086.9%5/6/05
89120Come Away HomeInn.$66,11216$72,81090.8%5/6/05
90151Jiminy Glick in La La WoodMGM$36,03924$36,039100.0%5/6/05
91188Up for GrabsL/Z$13,9314$13,931100.0%5/6/05
92202Fighting Tommy RileyFree$10,5145$10,514100.0%5/6/05
93215Le Grand RoleFRun$6,5242$11,41957.1%5/6/05
94240Twin SistersMira.$1,5631$1,563100.0%5/6/05
95206Writer of OZeit.$10,0181$11,72885.4%5/4/05
9618The Hitchhiker's Guide to the GalaxyBV$24,700,3553,133$51,085,41648.4%4/29/05
9724XXX: State of the UnionSonR$11,491,9763,480$26,873,93242.8%4/29/05
9835Ladies in LavenderIDP$3,969,351116$6,765,08158.7%4/29/05
9987The Holy GirlFL$263,20812$304,12486.5%4/29/05
100963-IronSPC$187,32231$241,91477.4%4/29/05
Summary of 255 Movies on Chart:
Totals:$1,933,202,336----
Averages:$7,581,186----
#1–100 - #101–200 - #201–255



2014 - 2013 - 2012 - 2011 - 2010 - 2009 - 2008 - 2007 - 2006 - 2005 - 2004 - 2003 - 2002 - 2001 - 2000

Season-to-Date: Summer
(The first Friday in May through Labor Day Weekend)
Data shown for May 6–Jul. 8


Note: Quarter-to-Date data is displayed for CALENDAR GROSSES only, i.e., all movies playing during the above time period and their grosses (or estimated grosses). Click here for a full explanation of the various box office sections.